Time;durP1;ratioP1;P1;durP2;ratioP2;P2;SDS_P1;SDS_P2;PMS_P1;PMS_P2;Temp;Humidity;BMP_temperature;BMP_pressure;BME280_temperature;BME280_humidity;BME280_pressure;Samples;Min_cycle;Max_cycle;Signal;HPM_P1;HPM_P2
2022/05/22 00:02:11;;;;;;;;;;;9.30;99.90;;;;;;5023125;28;19929;-75
2022/05/22 00:04:36;;;;;;;;;;;9.30;99.90;;;;;;5010564;28;19931;-75
2022/05/22 00:07:02;;;;;;;;;;;9.30;99.90;;;;;;5027425;28;19921;-75
2022/05/22 00:09:28;;;;;;;;;;;9.20;99.90;;;;;;5018479;28;19936;-75
2022/05/22 00:11:54;;;;;;;;;;;9.20;99.90;;;;;;5023155;28;19980;-75
2022/05/22 00:14:21;;;;;;;;;;;9.20;99.90;;;;;;5019087;28;19964;-75
2022/05/22 00:16:47;;;;;;;;;;;9.20;99.90;;;;;;5040335;28;19933;-75
2022/05/22 00:19:15;;;;;;;;;;;9.20;99.90;;;;;;5028214;28;19987;-75
2022/05/22 00:21:40;;;;;;;;;;;9.20;99.90;;;;;;5026878;28;19926;-75
2022/05/22 00:24:06;;;;;;;;;;;9.20;99.90;;;;;;5011410;28;19933;-75
2022/05/22 00:26:32;;;;;;;;;;;9.20;99.90;;;;;;5009960;28;19968;-76
2022/05/22 00:28:58;;;;;;;;;;;9.20;99.90;;;;;;5026801;28;19964;-75
2022/05/22 00:31:23;;;;;;;;;;;9.20;99.90;;;;;;5014612;28;20371;-75
2022/05/22 00:33:49;;;;;;;;;;;9.10;99.90;;;;;;5025907;28;19925;-76
2022/05/22 00:36:14;;;;;;;;;;;9.10;99.90;;;;;;5020380;28;19925;-76
2022/05/22 00:38:40;;;;;;;;;;;9.00;99.90;;;;;;5010041;28;19926;-75
2022/05/22 00:41:06;;;;;;;;;;;9.10;99.90;;;;;;5026752;28;20300;-75
2022/05/22 00:43:42;;;;;;;;;;;9.00;99.90;;;;;;5014879;28;19982;-75
2022/05/22 00:46:11;;;;;;;;;;;9.00;99.90;;;;;;5023704;28;19926;-75
2022/05/22 00:48:37;;;;;;;;;;;9.00;99.90;;;;;;5024799;28;20049;-75
2022/05/22 00:51:10;;;;;;;;;;;9.00;99.90;;;;;;5017315;28;19925;-75
2022/05/22 00:53:38;;;;;;;;;;;9.10;99.90;;;;;;5031628;28;19925;-75
2022/05/22 00:56:06;;;;;;;;;;;9.00;99.90;;;;;;5031494;28;20288;-75
2022/05/22 00:58:31;;;;;;;;;;;9.00;99.90;;;;;;5032902;28;19948;-76
2022/05/22 01:00:57;;;;;;;;;;;9.00;99.90;;;;;;5031687;28;20369;-75
2022/05/22 01:03:27;;;;;;;;;;;9.10;99.90;;;;;;5031377;28;19925;-75
2022/05/22 01:05:57;;;;;;;;;;;9.10;99.90;;;;;;5030026;28;20350;-75
2022/05/22 01:08:23;;;;;;;;;;;9.00;99.90;;;;;;5031993;28;19931;-76
2022/05/22 01:10:51;;;;;;;;;;;9.00;99.90;;;;;;5031966;28;19929;-75
2022/05/22 01:13:18;;;;;;;;;;;9.00;99.90;;;;;;5031190;28;20043;-75
2022/05/22 01:15:44;;;;;;;;;;;9.00;99.90;;;;;;5030866;28;19936;-75
2022/05/22 01:18:10;;;;;;;;;;;9.00;99.90;;;;;;5031962;28;19925;-75
2022/05/22 01:20:36;;;;;;;;;;;8.90;99.90;;;;;;5030111;28;19925;-75
2022/05/22 01:23:02;;;;;;;;;;;8.90;99.90;;;;;;5029790;28;19951;-76
2022/05/22 01:25:28;;;;;;;;;;;8.90;99.90;;;;;;5030841;28;20317;-75
2022/05/22 01:27:53;;;;;;;;;;;8.80;99.90;;;;;;5031156;28;19925;-76
2022/05/22 01:30:21;;;;;;;;;;;8.80;99.90;;;;;;5031808;28;19929;-76
2022/05/22 01:32:48;;;;;;;;;;;8.80;99.90;;;;;;5031342;28;19925;-76
2022/05/22 01:35:18;;;;;;;;;;;8.70;99.90;;;;;;5031051;28;20407;-76
2022/05/22 01:37:44;;;;;;;;;;;8.70;99.90;;;;;;5030435;28;19929;-76
2022/05/22 01:40:10;;;;;;;;;;;8.70;99.90;;;;;;5031346;28;19920;-76
2022/05/22 01:42:36;;;;;;;;;;;8.70;99.90;;;;;;5032513;28;19980;-76
2022/05/22 01:45:04;;;;;;;;;;;8.70;99.90;;;;;;5030563;28;19975;-76
2022/05/22 01:47:33;;;;;;;;;;;8.70;99.90;;;;;;5030343;28;19960;-76
2022/05/22 01:49:58;;;;;;;;;;;8.70;99.90;;;;;;5047183;28;20292;-76
2022/05/22 01:52:24;;;;;;;;;;;8.70;99.90;;;;;;5032051;28;20004;-76
2022/05/22 01:54:49;;;;;;;;;;;8.70;99.90;;;;;;5032302;28;19925;-76
2022/05/22 01:57:15;;;;;;;;;;;8.70;99.90;;;;;;5030006;28;20008;-76
2022/05/22 01:59:40;;;;;;;;;;;8.70;99.90;;;;;;5030368;28;19945;-76
2022/05/22 02:02:06;;;;;;;;;;;8.70;99.90;;;;;;5029528;28;19952;-75
2022/05/22 02:04:32;;;;;;;;;;;8.80;99.90;;;;;;5030179;28;20391;-75
2022/05/22 02:09:42;;;;;;;;;;;8.80;99.90;;;;;;5030885;28;19929;-75
2022/05/22 02:12:07;;;;;;;;;;;8.70;99.90;;;;;;5030227;28;20004;-76
2022/05/22 02:14:33;;;;;;;;;;;8.70;99.90;;;;;;5029972;28;19929;-76
2022/05/22 02:16:58;;;;;;;;;;;8.60;99.90;;;;;;5031703;28;19925;-75
2022/05/22 02:19:24;;;;;;;;;;;8.60;99.90;;;;;;5030251;28;19983;-75
2022/05/22 02:21:50;;;;;;;;;;;8.60;99.90;;;;;;5031890;28;19925;-75
2022/05/22 02:24:16;;;;;;;;;;;8.60;99.90;;;;;;5034538;28;20380;-75
2022/05/22 02:26:41;;;;;;;;;;;8.60;99.90;;;;;;5034034;28;19932;-76
2022/05/22 02:29:07;;;;;;;;;;;8.60;99.90;;;;;;5033419;28;19925;-75
2022/05/22 02:31:32;;;;;;;;;;;8.60;99.90;;;;;;5035829;28;19925;-75
2022/05/22 02:33:58;;;;;;;;;;;8.60;99.90;;;;;;5034024;28;19975;-75
2022/05/22 02:36:24;;;;;;;;;;;8.70;99.90;;;;;;5033977;28;19929;-76
2022/05/22 02:38:49;;;;;;;;;;;8.70;99.90;;;;;;5035633;28;19932;-76
2022/05/22 02:41:15;;;;;;;;;;;8.70;99.90;;;;;;5034889;28;19925;-76
2022/05/22 02:43:41;;;;;;;;;;;8.70;99.90;;;;;;5050549;28;19925;-76
2022/05/22 02:46:08;;;;;;;;;;;8.70;99.90;;;;;;5024132;28;19933;-76
2022/05/22 02:48:33;;;;;;;;;;;8.70;99.90;;;;;;5014675;28;19929;-77
2022/05/22 02:50:59;;;;;;;;;;;8.70;99.90;;;;;;5015554;28;20270;-75
2022/05/22 02:53:24;;;;;;;;;;;8.60;99.90;;;;;;5014028;28;19980;-76
2022/05/22 02:55:49;;;;;;;;;;;8.60;99.90;;;;;;5015433;28;19925;-76
2022/05/22 02:58:15;;;;;;;;;;;8.60;99.90;;;;;;5031765;28;19975;-76
2022/05/22 03:00:40;;;;;;;;;;;8.60;99.90;;;;;;5034963;28;19976;-76
2022/05/22 03:03:06;;;;;;;;;;;8.60;99.90;;;;;;5033693;28;19925;-77
2022/05/22 03:08:16;;;;;;;;;;;8.60;99.90;;;;;;5027889;28;19925;-76
2022/05/22 03:10:44;;;;;;;;;;;8.60;99.90;;;;;;5023139;28;19948;-76
2022/05/22 03:13:10;;;;;;;;;;;8.60;99.90;;;;;;5034552;28;19948;-76
2022/05/22 03:15:36;;;;;;;;;;;8.60;99.90;;;;;;5019989;28;19948;-76
2022/05/22 03:18:01;;;;;;;;;;;8.60;99.90;;;;;;5029223;28;20261;-76
2022/05/22 03:20:27;;;;;;;;;;;8.60;99.90;;;;;;5019541;28;19925;-76
2022/05/22 03:22:52;;;;;;;;;;;8.60;99.90;;;;;;5024365;28;19930;-77
2022/05/22 03:25:17;;;;;;;;;;;8.60;99.90;;;;;;5025020;28;19926;-77
2022/05/22 03:27:43;;;;;;;;;;;8.60;99.90;;;;;;5019338;28;20039;-76
2022/05/22 03:30:09;;;;;;;;;;;8.50;99.90;;;;;;5012672;28;19925;-76
2022/05/22 03:32:34;;;;;;;;;;;8.50;99.90;;;;;;5013070;28;20023;-76
2022/05/22 03:35:00;;;;;;;;;;;8.50;99.90;;;;;;5012993;28;19921;-76
2022/05/22 03:37:25;;;;;;;;;;;8.50;99.90;;;;;;5012642;28;20024;-76
2022/05/22 03:39:51;;;;;;;;;;;8.50;99.90;;;;;;5014184;28;19971;-76
2022/05/22 03:42:17;;;;;;;;;;;8.40;99.90;;;;;;5017225;28;19948;-76
2022/05/22 03:44:42;;;;;;;;;;;8.50;99.90;;;;;;5027237;28;20362;-76
2022/05/22 03:47:08;;;;;;;;;;;8.50;99.90;;;;;;5024275;28;20012;-76
2022/05/22 03:49:33;;;;;;;;;;;8.50;99.90;;;;;;5026769;28;19929;-76
2022/05/22 03:51:59;;;;;;;;;;;8.60;99.90;;;;;;5012517;28;19984;-76
2022/05/22 03:54:25;;;;;;;;;;;8.60;99.90;;;;;;5017001;28;19925;-76
2022/05/22 03:56:51;;;;;;;;;;;8.50;99.90;;;;;;5023980;28;19932;-76
2022/05/22 03:59:16;;;;;;;;;;;8.60;99.90;;;;;;5012755;28;19930;-76
2022/05/22 04:01:42;;;;;;;;;;;8.60;99.90;;;;;;5018689;28;19929;-77
2022/05/22 04:04:07;;;;;;;;;;;8.60;99.90;;;;;;5029567;28;19955;-76
2022/05/22 04:06:33;;;;;;;;;;;8.70;99.90;;;;;;5013701;28;19937;-76
2022/05/22 04:08:58;;;;;;;;;;;8.70;99.90;;;;;;5030146;28;20080;-75
2022/05/22 04:11:24;;;;;;;;;;;8.80;99.90;;;;;;5019834;28;19925;-76
2022/05/22 04:13:49;;;;;;;;;;;9.00;99.90;;;;;;5022282;28;19976;-76
2022/05/22 04:16:18;;;;;;;;;;;9.00;99.90;;;;;;5011925;28;20286;-76
2022/05/22 04:18:43;;;;;;;;;;;9.10;99.90;;;;;;5013977;28;19929;-76
2022/05/22 04:21:09;;;;;;;;;;;9.10;99.90;;;;;;5023498;28;19928;-77
2022/05/22 04:26:18;;;;;;;;;;;9.10;99.90;;;;;;5026347;28;20513;-76
2022/05/22 04:28:44;;;;;;;;;;;9.10;99.90;;;;;;5015297;28;20067;-76
2022/05/22 04:31:09;;;;;;;;;;;9.20;99.90;;;;;;5019552;28;20368;-77
2022/05/22 04:33:35;;;;;;;;;;;9.20;99.90;;;;;;5023860;28;20344;-76
2022/05/22 04:36:01;;;;;;;;;;;9.30;99.90;;;;;;5023909;28;19925;-76
2022/05/22 04:38:27;;;;;;;;;;;9.40;99.90;;;;;;5020534;28;19924;-76
2022/05/22 04:40:59;;;;;;;;;;;9.40;99.90;;;;;;5021958;28;19925;-76
2022/05/22 04:43:25;;;;;;;;;;;9.40;99.90;;;;;;5011830;28;20404;-77
2022/05/22 04:45:51;;;;;;;;;;;9.40;99.90;;;;;;5019220;28;20311;-76
2022/05/22 04:48:17;;;;;;;;;;;9.50;99.90;;;;;;5018439;28;20392;-76
2022/05/22 04:50:46;;;;;;;;;;;9.70;99.90;;;;;;5020205;28;19926;-76
2022/05/22 04:53:12;;;;;;;;;;;9.70;99.90;;;;;;5016226;28;19925;-73
2022/05/22 04:55:38;;;;;;;;;;;9.70;99.90;;;;;;5027485;28;19976;-78
2022/05/22 04:58:04;;;;;;;;;;;10.00;99.90;;;;;;5028113;28;19974;-77
2022/05/22 05:00:29;;;;;;;;;;;10.10;99.90;;;;;;5023928;28;19925;-78
2022/05/22 05:02:55;;;;;;;;;;;10.00;99.90;;;;;;5014126;28;19930;-79
2022/05/22 05:05:20;;;;;;;;;;;10.00;99.90;;;;;;5015412;28;20079;-78
2022/05/22 05:07:46;;;;;;;;;;;10.00;99.90;;;;;;5023101;28;19979;-79
2022/05/22 05:10:12;;;;;;;;;;;10.00;99.90;;;;;;5025333;28;19926;-80
2022/05/22 05:12:38;;;;;;;;;;;10.00;99.90;;;;;;5022221;28;19925;-78
2022/05/22 05:15:04;;;;;;;;;;;10.00;99.90;;;;;;5016092;28;19951;-79
2022/05/22 05:17:30;;;;;;;;;;;10.00;99.90;;;;;;5016793;28;19925;-78
2022/05/22 05:19:55;;;;;;;;;;;10.00;99.90;;;;;;5012696;28;20424;-79
2022/05/22 05:22:21;;;;;;;;;;;10.10;99.90;;;;;;5013197;28;19925;-79
2022/05/22 05:24:46;;;;;;;;;;;10.20;99.90;;;;;;5014557;28;20377;-79
2022/05/22 05:27:12;;;;;;;;;;;10.30;99.90;;;;;;5021773;28;19928;-79
2022/05/22 05:29:37;;;;;;;;;;;10.30;99.90;;;;;;5010782;28;19925;-78
2022/05/22 05:32:03;;;;;;;;;;;10.30;99.90;;;;;;5010881;28;19926;-79
2022/05/22 05:34:29;;;;;;;;;;;10.40;99.90;;;;;;5012269;28;19948;-79
2022/05/22 05:36:55;;;;;;;;;;;10.50;99.90;;;;;;5010889;28;19926;-78
2022/05/22 05:39:20;;;;;;;;;;;10.50;99.90;;;;;;5011756;28;20358;-79
2022/05/22 05:41:46;;;;;;;;;;;10.50;99.90;;;;;;5019460;28;19935;-79
2022/05/22 05:44:11;;;;;;;;;;;10.60;99.90;;;;;;5030204;28;20000;-78
2022/05/22 05:46:37;;;;;;;;;;;10.70;99.90;;;;;;5011278;28;19957;-80
2022/05/22 05:49:03;;;;;;;;;;;10.80;99.90;;;;;;5011945;28;19933;-73
2022/05/22 05:51:28;;;;;;;;;;;10.90;99.90;;;;;;5027253;28;20376;-74
2022/05/22 05:53:54;;;;;;;;;;;11.00;99.90;;;;;;5021681;28;19972;-71
2022/05/22 05:56:20;;;;;;;;;;;11.00;99.90;;;;;;5010714;28;19933;-71
2022/05/22 05:58:47;;;;;;;;;;;11.10;99.90;;;;;;5019337;28;20352;-71
2022/05/22 06:01:14;;;;;;;;;;;11.20;99.90;;;;;;5032166;28;20319;-75
2022/05/22 06:03:39;;;;;;;;;;;11.30;99.90;;;;;;5017591;28;19987;-76
2022/05/22 06:06:06;;;;;;;;;;;11.40;99.90;;;;;;5019111;28;19925;-74
2022/05/22 06:08:31;;;;;;;;;;;12.70;99.90;;;;;;5027084;28;20297;-71
2022/05/22 06:10:58;;;;;;;;;;;11.70;99.90;;;;;;5013113;28;19925;-71
2022/05/22 06:13:24;;;;;;;;;;;11.70;99.90;;;;;;5035362;28;20071;-75
2022/05/22 06:15:50;;;;;;;;;;;12.00;99.90;;;;;;5033169;28;20019;-74
2022/05/22 06:18:15;;;;;;;;;;;11.90;99.90;;;;;;5031886;28;19925;-72
2022/05/22 06:20:41;;;;;;;;;;;12.10;99.90;;;;;;5024477;28;20285;-72
2022/05/22 06:23:06;;;;;;;;;;;12.20;99.90;;;;;;5013449;28;19925;-71
2022/05/22 06:25:33;;;;;;;;;;;12.30;99.90;;;;;;5014265;28;19940;-76
2022/05/22 06:27:58;;;;;;;;;;;12.40;99.90;;;;;;5013667;28;19932;-76
2022/05/22 06:30:24;;;;;;;;;;;12.50;99.90;;;;;;5015697;28;19933;-76
2022/05/22 06:32:50;;;;;;;;;;;12.60;99.90;;;;;;5021589;28;19932;-76
2022/05/22 06:35:16;;;;;;;;;;;12.60;99.90;;;;;;5023373;28;19926;-76
2022/05/22 06:37:41;;;;;;;;;;;12.80;99.90;;;;;;5029025;28;19925;-76
2022/05/22 06:40:07;;;;;;;;;;;12.90;99.90;;;;;;5016568;28;19926;-76
2022/05/22 06:42:35;;;;;;;;;;;13.00;99.90;;;;;;5028603;28;20344;-76
2022/05/22 06:45:03;;;;;;;;;;;13.10;99.90;;;;;;5019366;28;20043;-77
2022/05/22 06:47:30;;;;;;;;;;;13.20;99.90;;;;;;5020571;28;19926;-76
2022/05/22 06:49:57;;;;;;;;;;;13.30;99.90;;;;;;5013696;28;19932;-76
2022/05/22 06:52:23;;;;;;;;;;;13.40;99.90;;;;;;5015681;28;20300;-76
2022/05/22 06:54:49;;;;;;;;;;;13.60;99.90;;;;;;5028926;28;19934;-76
2022/05/22 06:57:16;;;;;;;;;;;13.90;99.90;;;;;;5014859;28;20377;-76
2022/05/22 06:59:42;;;;;;;;;;;13.80;99.90;;;;;;5032577;28;20296;-76
2022/05/22 07:02:08;;;;;;;;;;;13.90;99.90;;;;;;5031770;28;20027;-75
2022/05/22 07:04:33;;;;;;;;;;;14.10;99.90;;;;;;5027979;28;19997;-76
2022/05/22 07:06:59;;;;;;;;;;;14.10;99.90;;;;;;5022473;28;20028;-74
2022/05/22 07:09:24;;;;;;;;;;;14.10;99.90;;;;;;5024642;28;19988;-74
2022/05/22 07:11:53;;;;;;;;;;;14.30;99.90;;;;;;5015163;28;19925;-74
2022/05/22 07:14:19;;;;;;;;;;;14.40;99.90;;;;;;5047360;28;19936;-74
2022/05/22 07:16:45;;;;;;;;;;;14.80;99.90;;;;;;5029650;28;19925;-73
2022/05/22 07:19:11;;;;;;;;;;;14.70;99.90;;;;;;5015226;28;19926;-70
2022/05/22 07:21:36;;;;;;;;;;;15.10;99.90;;;;;;5014663;28;19925;-73
2022/05/22 07:24:05;;;;;;;;;;;15.80;99.90;;;;;;5014309;28;19926;-70
2022/05/22 07:26:31;;;;;;;;;;;16.60;99.90;;;;;;5016390;28;20412;-71
2022/05/22 07:29:01;;;;;;;;;;;17.50;99.90;;;;;;5013745;28;19925;-70
2022/05/22 07:31:27;;;;;;;;;;;18.20;99.90;;;;;;5015744;28;19925;-70
2022/05/22 07:33:52;;;;;;;;;;;19.00;99.90;;;;;;5011041;28;20395;-74
2022/05/22 07:36:19;;;;;;;;;;;19.20;99.90;;;;;;5029111;28;19925;-74
2022/05/22 07:38:45;;;;;;;;;;;19.60;99.90;;;;;;5014796;28;19936;-76
2022/05/22 07:41:11;;;;;;;;;;;20.20;99.90;;;;;;5015101;28;20040;-70
2022/05/22 07:43:38;;;;;;;;;;;20.60;99.90;;;;;;5034205;28;20419;-70
2022/05/22 07:46:04;;;;;;;;;;;20.90;98.50;;;;;;5034372;28;20461;-71
2022/05/22 07:48:29;;;;;;;;;;;21.10;99.60;;;;;;5032216;28;20372;-71
2022/05/22 07:50:55;;;;;;;;;;;21.60;98.50;;;;;;5033522;28;19925;-71
2022/05/22 07:53:21;;;;;;;;;;;21.90;97.70;;;;;;5034921;28;19972;-72
2022/05/22 07:55:47;;;;;;;;;;;22.20;96.70;;;;;;5026279;28;19929;-71
2022/05/22 07:58:12;;;;;;;;;;;22.40;96.30;;;;;;5015050;28;19926;-72
2022/05/22 08:00:38;;;;;;;;;;;22.30;96.40;;;;;;5031098;28;19925;-74
2022/05/22 08:03:07;;;;;;;;;;;22.50;96.50;;;;;;5034903;28;20339;-74
2022/05/22 08:05:33;;;;;;;;;;;22.90;96.60;;;;;;5033700;28;19925;-74
2022/05/22 08:07:58;;;;;;;;;;;23.10;94.80;;;;;;5035026;28;20024;-73
2022/05/22 08:10:24;;;;;;;;;;;23.10;94.60;;;;;;5035683;28;19925;-84
2022/05/22 08:12:50;;;;;;;;;;;23.10;95.20;;;;;;5047157;28;19979;-76
2022/05/22 08:15:17;;;;;;;;;;;23.10;94.30;;;;;;5048673;28;20031;-73
2022/05/22 08:17:43;;;;;;;;;;;23.30;93.90;;;;;;5033054;28;19925;-73
2022/05/22 08:20:12;;;;;;;;;;;23.50;93.30;;;;;;5034657;28;19932;-74
2022/05/22 08:22:40;;;;;;;;;;;23.60;93.10;;;;;;5034648;28;19931;-73
2022/05/22 08:25:06;;;;;;;;;;;23.80;94.00;;;;;;5032306;28;20289;-75
2022/05/22 08:27:31;;;;;;;;;;;24.50;92.80;;;;;;5029335;28;19925;-75
2022/05/22 08:29:57;;;;;;;;;;;24.50;92.60;;;;;;5048951;28;20331;-74
2022/05/22 08:32:26;;;;;;;;;;;24.50;93.40;;;;;;5031486;28;19925;-74
2022/05/22 08:34:52;;;;;;;;;;;24.40;93.30;;;;;;5034261;28;20407;-71
2022/05/22 08:37:18;;;;;;;;;;;24.50;92.40;;;;;;5033182;28;19925;-71
2022/05/22 08:39:44;;;;;;;;;;;25.20;93.20;;;;;;5029600;28;19924;-73
2022/05/22 08:42:13;;;;;;;;;;;25.00;92.10;;;;;;5047267;28;20012;-73
2022/05/22 08:44:39;;;;;;;;;;;25.30;92.20;;;;;;5030912;28;19924;-71
2022/05/22 08:47:17;;;;;;;;;;;25.30;92.80;;;;;;5029646;28;20304;-73
2022/05/22 08:49:56;;;;;;;;;;;25.30;92.20;;;;;;5025323;28;20403;-71
2022/05/22 08:52:25;;;;;;;;;;;25.20;92.30;;;;;;5025893;28;20404;-74
2022/05/22 08:54:53;;;;;;;;;;;25.10;92.10;;;;;;5031750;28;19933;-73
2022/05/22 09:00:09;;;;;;;;;;;24.50;92.00;;;;;;5028656;28;20314;-74
2022/05/22 09:02:36;;;;;;;;;;;24.00;92.40;;;;;;5032501;28;19972;-74
2022/05/22 09:05:02;;;;;;;;;;;24.40;93.00;;;;;;5029896;28;19925;-73
2022/05/22 09:07:48;;;;;;;;;;;24.70;93.70;;;;;;5031697;28;19936;-72
2022/05/22 09:10:16;;;;;;;;;;;25.10;92.60;;;;;;5032207;28;19932;-74
2022/05/22 09:12:41;;;;;;;;;;;24.90;93.40;;;;;;5031035;28;20384;-73
2022/05/22 09:15:07;;;;;;;;;;;25.00;91.70;;;;;;5031982;28;19925;-72
2022/05/22 09:17:37;;;;;;;;;;;25.00;92.20;;;;;;5047254;28;20445;-73
2022/05/22 09:20:09;;;;;;;;;;;24.50;92.00;;;;;;5014730;28;19926;-73
2022/05/22 09:23:00;;;;;;;;;;;24.20;93.50;;;;;;5012506;28;19929;-72
2022/05/22 09:25:46;;;;;;;;;;;24.00;92.40;;;;;;5011453;28;19929;-72
2022/05/22 09:28:30;;;;;;;;;;;23.50;92.80;;;;;;5011356;28;20369;-72
2022/05/22 09:31:03;;;;;;;;;;;23.30;93.30;;;;;;5014507;28;19929;-72
2022/05/22 09:33:46;;;;;;;;;;;23.40;93.70;;;;;;5018783;28;20007;-72
2022/05/22 09:36:31;;;;;;;;;;;24.00;93.10;;;;;;5019538;28;20012;-72
2022/05/22 09:39:11;;;;;;;;;;;24.70;93.80;;;;;;5023816;28;19921;-73
2022/05/22 09:41:55;;;;;;;;;;;24.70;92.60;;;;;;5031979;28;19925;-73
2022/05/22 09:44:33;;;;;;;;;;;24.20;92.50;;;;;;5031712;28;19948;-72
2022/05/22 09:47:30;;;;;;;;;;;24.00;92.60;;;;;;5032469;28;19979;-72
2022/05/22 09:49:59;;;;;;;;;;;24.00;92.50;;;;;;4977014;28;20323;-72
2022/05/22 09:52:30;;;;;;;;;;;23.60;92.50;;;;;;5025072;28;19929;-73
2022/05/22 09:55:14;;;;;;;;;;;23.20;93.30;;;;;;5020707;28;19961;-73
2022/05/22 09:57:40;;;;;;;;;;;22.70;94.50;;;;;;5010946;28;19929;-73
2022/05/22 10:00:09;;;;;;;;;;;22.50;94.50;;;;;;5027066;28;19931;-74
2022/05/22 10:02:41;;;;;;;;;;;22.30;94.40;;;;;;5030184;28;19996;-74
2022/05/22 10:05:23;;;;;;;;;;;22.20;94.30;;;;;;5045009;28;20020;-73
2022/05/22 10:07:54;;;;;;;;;;;21.70;94.60;;;;;;5019765;28;19929;-75
2022/05/22 10:10:25;;;;;;;;;;;22.10;95.20;;;;;;5011658;28;19921;-76
2022/05/22 10:12:51;;;;;;;;;;;22.70;94.50;;;;;;5010752;28;19980;-78
2022/05/22 10:15:32;;;;;;;;;;;23.10;92.80;;;;;;5010798;28;19937;-78
2022/05/22 10:18:16;;;;;;;;;;;23.20;93.00;;;;;;5010273;28;19929;-77
2022/05/22 10:20:45;;;;;;;;;;;23.60;92.60;;;;;;5018994;28;19972;-77
2022/05/22 10:23:11;;;;;;;;;;;24.00;91.00;;;;;;5010386;28;19948;-77
2022/05/22 10:25:36;;;;;;;;;;;24.20;91.80;;;;;;5010699;28;19925;-77
2022/05/22 10:28:09;;;;;;;;;;;24.30;91.70;;;;;;5010980;28;20277;-77
2022/05/22 10:30:37;;;;;;;;;;;24.70;91.90;;;;;;5011759;28;20359;-77
2022/05/22 10:33:05;;;;;;;;;;;25.00;91.90;;;;;;5011725;28;19926;-77
2022/05/22 10:35:47;;;;;;;;;;;25.50;90.50;;;;;;5011720;28;19926;-77
2022/05/22 10:38:30;;;;;;;;;;;25.80;90.20;;;;;;5011411;28;19926;-77
2022/05/22 10:43:42;;;;;;;;;;;25.90;88.60;;;;;;5030812;28;19932;-77
2022/05/22 10:46:07;;;;;;;;;;;26.00;86.60;;;;;;5013127;28;19925;-76
2022/05/22 10:48:35;;;;;;;;;;;25.50;89.40;;;;;;5013440;28;19928;-76
2022/05/22 10:51:11;;;;;;;;;;;24.90;89.90;;;;;;5013742;28;19931;-76
2022/05/22 10:53:38;;;;;;;;;;;24.80;90.20;;;;;;5012927;28;19921;-75
2022/05/22 10:56:13;;;;;;;;;;;25.20;89.00;;;;;;5034677;28;19970;-74
2022/05/22 10:58:39;;;;;;;;;;;25.00;89.50;;;;;;5034443;28;19921;-72
2022/05/22 11:01:14;;;;;;;;;;;24.20;90.20;;;;;;5034445;28;19936;-73
2022/05/22 11:03:39;;;;;;;;;;;23.60;91.30;;;;;;5023439;28;19926;-72
2022/05/22 11:06:15;;;;;;;;;;;23.70;93.50;;;;;;5014608;28;20369;-72
2022/05/22 11:08:45;;;;;;;;;;;24.20;90.70;;;;;;5013094;28;20042;-72
2022/05/22 11:11:12;;;;;;;;;;;24.50;91.20;;;;;;5014621;28;19925;-73
2022/05/22 11:13:38;;;;;;;;;;;24.90;89.30;;;;;;5013134;28;19949;-74
2022/05/22 11:16:11;;;;;;;;;;;25.30;85.90;;;;;;5013502;28;19933;-74
2022/05/22 11:18:36;;;;;;;;;;;25.00;87.40;;;;;;5013750;28;19968;-73
2022/05/22 11:21:04;;;;;;;;;;;25.10;85.90;;;;;;5012921;28;19977;-73
2022/05/22 11:23:42;;;;;;;;;;;25.20;84.70;;;;;;5014180;28;19925;-73
2022/05/22 11:26:08;;;;;;;;;;;24.70;86.50;;;;;;5013192;28;19965;-74
2022/05/22 11:28:33;;;;;;;;;;;24.40;86.70;;;;;;5014058;28;20368;-75
2022/05/22 11:31:12;;;;;;;;;;;24.50;87.70;;;;;;5013397;28;19926;-74
2022/05/22 11:33:40;;;;;;;;;;;24.90;86.20;;;;;;5013246;28;20241;-74
2022/05/22 11:36:09;;;;;;;;;;;25.10;87.10;;;;;;5013493;28;20003;-75
2022/05/22 11:38:38;;;;;;;;;;;25.40;85.60;;;;;;5014427;28;19925;-73
2022/05/22 11:41:09;;;;;;;;;;;25.70;82.80;;;;;;5012725;28;20290;-73
2022/05/22 11:43:46;;;;;;;;;;;25.50;85.30;;;;;;5014676;28;19976;-73
2022/05/22 11:46:15;;;;;;;;;;;25.40;85.90;;;;;;5023644;28;19925;-74
2022/05/22 11:48:53;;;;;;;;;;;25.90;85.60;;;;;;5034168;28;19925;-74
2022/05/22 11:51:39;;;;;;;;;;;25.70;85.00;;;;;;5032707;28;19935;-74
2022/05/22 11:54:12;;;;;;;;;;;25.90;84.50;;;;;;5033329;28;20347;-74
2022/05/22 11:56:38;;;;;;;;;;;25.70;85.50;;;;;;5030977;28;19925;-73
2022/05/22 11:59:15;;;;;;;;;;;25.80;85.50;;;;;;5033046;28;19932;-73
2022/05/22 12:01:50;;;;;;;;;;;25.90;85.70;;;;;;5032531;28;20377;-72
2022/05/22 12:04:21;;;;;;;;;;;25.60;83.40;;;;;;5030197;28;19932;-73
2022/05/22 12:06:50;;;;;;;;;;;25.40;84.00;;;;;;5034040;28;19925;-73
2022/05/22 12:09:27;;;;;;;;;;;25.00;84.90;;;;;;5032955;28;20395;-73
2022/05/22 12:11:56;;;;;;;;;;;25.00;84.60;;;;;;5032407;28;20300;-73
2022/05/22 12:14:26;;;;;;;;;;;25.20;88.00;;;;;;5032088;28;19925;-73
2022/05/22 12:16:57;;;;;;;;;;;25.40;85.30;;;;;;5033229;28;19960;-73
2022/05/22 12:19:26;;;;;;;;;;;25.80;84.80;;;;;;5031790;28;19925;-73
2022/05/22 12:21:51;;;;;;;;;;;25.70;84.50;;;;;;5033628;28;19964;-73
2022/05/22 12:24:29;;;;;;;;;;;25.60;83.40;;;;;;5030965;28;19961;-73
2022/05/22 12:26:55;;;;;;;;;;;24.90;85.10;;;;;;5032656;28;19929;-73
2022/05/22 12:29:45;;;;;;;;;;;24.30;85.60;;;;;;5032161;28;19932;-73
2022/05/22 12:32:19;;;;;;;;;;;24.00;85.80;;;;;;5031153;28;20024;-72
2022/05/22 12:34:48;;;;;;;;;;;23.80;87.20;;;;;;5023238;28;19984;-73
2022/05/22 12:37:21;;;;;;;;;;;23.30;88.20;;;;;;5029754;28;19925;-72
2022/05/22 12:39:54;;;;;;;;;;;23.40;87.70;;;;;;5030656;28;19933;-73
2022/05/22 12:42:27;;;;;;;;;;;22.80;88.00;;;;;;5013381;28;19930;-73
2022/05/22 12:44:53;;;;;;;;;;;23.00;88.20;;;;;;5012002;28;19932;-73
2022/05/22 12:47:19;;;;;;;;;;;23.30;89.40;;;;;;5011764;28;19925;-73
2022/05/22 12:49:55;;;;;;;;;;;23.60;86.50;;;;;;5014434;28;19975;-73
2022/05/22 12:52:23;;;;;;;;;;;23.40;86.50;;;;;;5012857;28;19926;-73
2022/05/22 12:54:55;;;;;;;;;;;23.20;87.80;;;;;;5011405;28;20008;-73
2022/05/22 12:57:21;;;;;;;;;;;23.00;88.30;;;;;;5011433;28;19925;-72
2022/05/22 12:59:56;;;;;;;;;;;22.80;88.00;;;;;;5010613;28;19979;-72
2022/05/22 13:02:26;;;;;;;;;;;22.70;88.90;;;;;;5012157;28;20420;-72
2022/05/22 13:04:54;;;;;;;;;;;23.10;89.60;;;;;;5013199;28;19925;-72
2022/05/22 13:07:26;;;;;;;;;;;23.30;90.00;;;;;;5010658;28;19956;-73
2022/05/22 13:09:54;;;;;;;;;;;23.50;87.50;;;;;;5013042;28;19948;-73
2022/05/22 13:12:24;;;;;;;;;;;23.50;86.90;;;;;;5010078;28;19945;-72
2022/05/22 13:14:58;;;;;;;;;;;23.30;88.30;;;;;;5010385;28;19964;-75
2022/05/22 13:17:30;;;;;;;;;;;23.50;86.80;;;;;;5020830;28;20392;-73
2022/05/22 13:19:56;;;;;;;;;;;23.70;90.10;;;;;;5031761;28;19932;-72
2022/05/22 13:22:51;;;;;;;;;;;23.70;86.50;;;;;;5030703;28;20304;-72
2022/05/22 13:25:26;;;;;;;;;;;23.80;85.40;;;;;;5028039;28;19940;-73
2022/05/22 13:27:54;;;;;;;;;;;23.60;86.30;;;;;;5010403;28;19933;-72
2022/05/22 13:30:27;;;;;;;;;;;24.20;85.90;;;;;;5010322;28;19927;-72
2022/05/22 13:33:08;;;;;;;;;;;23.50;84.30;;;;;;5013636;28;19940;-76
2022/05/22 13:35:39;;;;;;;;;;;23.30;86.10;;;;;;5010966;28;19921;-76
2022/05/22 13:38:10;;;;;;;;;;;23.50;83.60;;;;;;5010449;28;20398;-77
2022/05/22 13:40:45;;;;;;;;;;;23.50;84.90;;;;;;5011091;28;20337;-76
2022/05/22 13:43:23;;;;;;;;;;;23.80;83.00;;;;;;5010595;28;20032;-71
2022/05/22 13:45:59;;;;;;;;;;;23.70;82.60;;;;;;5016782;28;20411;-71
2022/05/22 13:48:44;;;;;;;;;;;23.80;81.10;;;;;;5030501;28;19929;-72
2022/05/22 13:54:23;;;;;;;;;;;23.90;82.90;;;;;;5030961;28;19925;-72
2022/05/22 13:56:57;;;;;;;;;;;24.00;83.50;;;;;;5017081;28;19929;-72
2022/05/22 13:59:25;;;;;;;;;;;24.20;82.60;;;;;;5018637;28;19925;-72
2022/05/22 14:01:51;;;;;;;;;;;24.40;84.10;;;;;;5031562;28;19925;-74
2022/05/22 14:04:17;;;;;;;;;;;24.00;84.10;;;;;;5012091;28;19932;-73
2022/05/22 14:06:43;;;;;;;;;;;24.20;82.60;;;;;;5026477;28;19925;-72
2022/05/22 14:09:16;;;;;;;;;;;24.20;83.90;;;;;;5031100;28;19931;-74
2022/05/22 14:11:49;;;;;;;;;;;24.30;85.10;;;;;;5027908;28;19925;-75
2022/05/22 14:14:24;;;;;;;;;;;24.40;84.80;;;;;;5018673;28;20016;-74
2022/05/22 14:16:56;;;;;;;;;;;24.60;85.10;;;;;;5011573;28;20400;-74
2022/05/22 14:19:54;;;;;;;;;;;24.40;85.90;;;;;;5013478;28;19933;-74
2022/05/22 14:22:21;;;;;;;;;;;24.30;86.50;;;;;;5006879;28;20064;-72
2022/05/22 14:24:54;;;;;;;;;;;24.60;83.20;;;;;;5014479;28;20016;-74
2022/05/22 14:27:25;;;;;;;;;;;24.20;84.40;;;;;;5025867;28;19929;-71
2022/05/22 14:29:51;;;;;;;;;;;24.20;84.50;;;;;;5050367;28;19932;-73
2022/05/22 14:32:19;;;;;;;;;;;24.50;84.60;;;;;;5021800;28;19925;-74
2022/05/22 14:34:46;;;;;;;;;;;24.60;83.60;;;;;;5015899;28;19934;-73
2022/05/22 14:37:12;;;;;;;;;;;24.60;83.80;;;;;;5014333;28;19929;-75
2022/05/22 14:39:52;;;;;;;;;;;24.50;82.70;;;;;;5015385;28;19925;-75
2022/05/22 14:42:20;;;;;;;;;;;24.30;83.80;;;;;;5013960;28;20412;-75
2022/05/22 14:44:45;;;;;;;;;;;24.30;83.70;;;;;;5027812;28;19970;-77
2022/05/22 14:47:15;;;;;;;;;;;24.30;86.50;;;;;;5034903;28;20435;-75